createdAt,value
2023-04-15T00:00:03.030Z,10.71
2023-04-15T00:02:29.643Z,10.50
2023-04-15T00:04:56.344Z,10.65
2023-04-15T00:07:22.803Z,10.18
2023-04-15T00:09:49.258Z,10.46
2023-04-15T00:12:15.707Z,10.57
2023-04-15T00:14:42.259Z,10.28
2023-04-15T00:17:08.730Z,10.45
2023-04-15T00:19:35.241Z,10.71
2023-04-15T00:22:01.750Z,10.39
2023-04-15T00:24:28.238Z,10.06
2023-04-15T00:26:54.710Z,10.46
2023-04-15T00:29:21.153Z,10.03
2023-04-15T00:31:47.636Z,10.17
2023-04-15T00:34:14.071Z,9.84
2023-04-15T00:36:40.600Z,10.14
2023-04-15T00:39:07.084Z,10.20
2023-04-15T00:41:33.600Z,10.52
2023-04-15T00:44:01.406Z,10.56
2023-04-15T00:46:31.357Z,10.15
2023-04-15T00:48:57.921Z,10.37
2023-04-15T00:51:24.455Z,10.40
2023-04-15T00:53:50.998Z,10.42
2023-04-15T00:56:20.072Z,10.26
2023-04-15T00:58:46.648Z,10.27
2023-04-15T01:01:13.151Z,10.71
2023-04-15T01:03:39.858Z,10.64
2023-04-15T01:06:07.733Z,10.75
2023-04-15T01:08:34.196Z,10.41
2023-04-15T01:11:03.365Z,10.58
2023-04-15T01:13:31.095Z,10.21
2023-04-15T01:15:57.664Z,10.77
2023-04-15T01:18:24.391Z,10.50
2023-04-15T01:20:50.864Z,10.77
2023-04-15T01:23:17.473Z,10.67
2023-04-15T01:25:45.329Z,10.95
2023-04-15T01:28:11.897Z,10.27
2023-04-15T01:30:38.388Z,10.53
2023-04-15T01:33:04.957Z,10.37
2023-04-15T01:35:31.411Z,10.57
2023-04-15T01:38:08.004Z,10.83
2023-04-15T01:40:35.027Z,10.92
2023-04-15T01:43:02.415Z,10.75
2023-04-15T01:45:29.030Z,10.74
2023-04-15T01:47:55.726Z,10.91
2023-04-15T01:50:22.248Z,11.03
2023-04-15T01:52:48.737Z,11.10
2023-04-15T01:55:15.171Z,11.19
2023-04-15T01:57:41.650Z,11.08
2023-04-15T02:00:08.565Z,11.03
2023-04-15T02:02:35.113Z,11.27
2023-04-15T02:05:01.646Z,11.39
2023-04-15T02:07:28.119Z,11.42
2023-04-15T02:09:54.570Z,11.24
2023-04-15T02:12:21.038Z,11.47
2023-04-15T02:14:47.519Z,11.48
2023-04-15T02:17:13.969Z,11.50
2023-04-15T02:19:40.412Z,11.67
2023-04-15T02:22:06.909Z,11.79
2023-04-15T02:24:34.682Z,11.56
2023-04-15T02:27:01.153Z,11.68
2023-04-15T02:29:27.695Z,11.51
2023-04-15T02:31:54.223Z,11.74
2023-04-15T02:34:20.712Z,11.71
2023-04-15T02:36:47.181Z,11.63
2023-04-15T02:39:13.634Z,11.71
2023-04-15T02:41:40.092Z,11.79
2023-04-15T02:44:06.536Z,11.63
2023-04-15T02:46:33.005Z,11.88
2023-04-15T02:48:59.728Z,11.70
2023-04-15T02:51:30.844Z,11.69
2023-04-15T02:53:57.341Z,11.75
2023-04-15T02:56:23.868Z,11.45
2023-04-15T02:58:50.420Z,11.27
2023-04-15T03:01:16.953Z,11.51
2023-04-15T03:03:43.530Z,11.17
2023-04-15T03:06:10.117Z,10.88
2023-04-15T03:08:36.616Z,10.52
2023-04-15T03:11:03.324Z,10.77
2023-04-15T03:13:29.810Z,10.90
2023-04-15T03:15:56.332Z,10.85
2023-04-15T03:18:22.911Z,11.00
2023-04-15T03:20:49.412Z,11.05
2023-04-15T03:23:15.931Z,11.19
2023-04-15T03:25:42.432Z,11.04
2023-04-15T03:28:08.913Z,11.26
2023-04-15T03:30:35.388Z,11.05
2023-04-15T03:33:01.916Z,11.09
2023-04-15T03:35:28.401Z,11.04
2023-04-15T03:37:54.910Z,11.19
2023-04-15T03:40:21.713Z,11.20
2023-04-15T03:42:48.256Z,11.39
2023-04-15T03:45:14.723Z,11.26
2023-04-15T03:47:41.214Z,11.17
2023-04-15T03:50:08.088Z,11.29
2023-04-15T03:52:34.556Z,11.10
2023-04-15T03:55:01.017Z,11.08
2023-04-15T03:57:27.560Z,10.95
2023-04-15T03:59:54.002Z,11.26
2023-04-15T04:02:20.582Z,11.16
2023-04-15T04:04:47.239Z,11.24
2023-04-15T04:07:17.513Z,10.99
2023-04-15T04:09:45.660Z,11.05
2023-04-15T04:12:13.164Z,11.21
2023-04-15T04:14:39.624Z,11.36
2023-04-15T04:17:06.288Z,11.03
2023-04-15T04:19:32.855Z,11.07
2023-04-15T04:21:59.353Z,11.12
2023-04-15T04:24:25.866Z,11.24
2023-04-15T04:26:52.375Z,11.29
2023-04-15T04:29:18.829Z,11.08
2023-04-15T04:31:45.409Z,10.77
2023-04-15T04:34:11.905Z,10.82
2023-04-15T04:36:38.389Z,11.03
2023-04-15T04:39:04.844Z,10.82
2023-04-15T04:41:31.344Z,10.91
2023-04-15T04:43:57.884Z,11.13
2023-04-15T04:46:24.399Z,11.25
2023-04-15T04:48:50.860Z,11.12
2023-04-15T04:51:18.004Z,11.17
2023-04-15T04:53:44.490Z,11.04
2023-04-15T04:56:10.958Z,11.24
2023-04-15T04:58:37.439Z,11.19
2023-04-15T05:01:04.332Z,11.05
2023-04-15T05:03:30.990Z,11.32
2023-04-15T05:05:57.502Z,11.44
2023-04-15T05:08:23.990Z,11.40
2023-04-15T05:10:50.457Z,11.24
2023-04-15T05:13:16.928Z,11.19
2023-04-15T05:15:43.469Z,11.20
2023-04-15T05:18:09.992Z,11.25
2023-04-15T05:20:36.501Z,11.16
2023-04-15T05:23:02.989Z,11.13
2023-04-15T05:25:29.527Z,11.33
2023-04-15T05:27:56.048Z,11.29
2023-04-15T05:30:22.546Z,11.10
2023-04-15T05:32:49.080Z,11.17
2023-04-15T05:35:15.571Z,11.41
2023-04-15T05:37:42.150Z,11.52
2023-04-15T05:40:08.831Z,11.40
2023-04-15T05:42:35.325Z,11.46
2023-04-15T05:45:01.803Z,11.61
2023-04-15T05:47:28.297Z,11.73
2023-04-15T05:49:54.763Z,11.88
2023-04-15T05:52:21.222Z,11.98
2023-04-15T05:54:47.723Z,11.94
2023-04-15T05:57:14.230Z,11.92
2023-04-15T05:59:40.689Z,11.89
2023-04-15T06:02:07.493Z,12.04
2023-04-15T06:04:34.066Z,11.50
2023-04-15T06:07:00.653Z,11.52
2023-04-15T06:09:27.151Z,11.59
2023-04-15T06:11:53.665Z,11.22
2023-04-15T06:14:20.205Z,11.09
2023-04-15T06:16:46.669Z,11.12
2023-04-15T06:19:13.141Z,11.04
2023-04-15T06:21:40.012Z,10.66
2023-04-15T06:24:06.632Z,10.64
2023-04-15T06:26:33.083Z,10.56
2023-04-15T06:28:59.785Z,10.29
2023-04-15T06:31:26.761Z,10.51
2023-04-15T06:33:53.299Z,10.62
2023-04-15T06:36:19.792Z,10.50
2023-04-15T06:38:46.253Z,10.33
2023-04-15T06:41:12.868Z,10.39
2023-04-15T06:43:39.633Z,9.97
2023-04-15T06:46:06.154Z,10.07
2023-04-15T06:48:32.711Z,9.87
2023-04-15T06:50:59.215Z,9.83
2023-04-15T06:53:26.180Z,10.02
2023-04-15T06:55:52.677Z,10.47
2023-04-15T06:58:19.156Z,10.45
2023-04-15T07:00:45.850Z,10.65
2023-04-15T07:03:12.839Z,10.69
2023-04-15T07:05:39.488Z,10.65
2023-04-15T07:08:05.978Z,10.47
2023-04-15T07:10:33.607Z,10.30
2023-04-15T07:13:00.153Z,10.37
2023-04-15T07:15:26.639Z,10.32
2023-04-15T07:17:53.167Z,10.53
2023-04-15T07:20:19.853Z,10.44
2023-04-15T07:22:46.331Z,10.52
2023-04-15T07:25:12.812Z,10.47
2023-04-15T07:27:39.248Z,10.53
2023-04-15T07:30:07.075Z,10.44
2023-04-15T07:32:33.657Z,10.37
2023-04-15T07:35:01.036Z,10.27
2023-04-15T07:37:27.543Z,10.39
2023-04-15T07:39:54.388Z,10.34
2023-04-15T07:42:21.755Z,10.36
2023-04-15T07:44:51.870Z,10.76
2023-04-15T07:47:18.412Z,10.72
2023-04-15T07:49:45.204Z,10.61
2023-04-15T07:52:11.706Z,10.39
2023-04-15T07:54:38.211Z,10.67
2023-04-15T07:57:04.764Z,10.57
2023-04-15T07:59:31.364Z,10.58
2023-04-15T08:01:57.976Z,10.62
2023-04-15T08:04:24.659Z,10.74
2023-04-15T08:06:51.243Z,10.49
2023-04-15T08:09:17.889Z,10.52
2023-04-15T08:11:45.381Z,10.46
2023-04-15T08:14:11.837Z,10.53
2023-04-15T08:16:38.361Z,10.80
2023-04-15T08:19:04.927Z,10.82
2023-04-15T08:21:31.442Z,11.16
2023-04-15T08:23:57.945Z,11.40
2023-04-15T08:26:24.492Z,11.27
2023-04-15T08:28:51.032Z,11.42
2023-04-15T08:31:18.776Z,11.40
2023-04-15T08:33:46.390Z,11.59
2023-04-15T08:36:12.944Z,11.57
2023-04-15T08:38:39.565Z,11.74
2023-04-15T08:41:21.645Z,11.74
2023-04-15T08:44:03.400Z,11.93
2023-04-15T08:46:31.573Z,12.08
2023-04-15T08:48:58.987Z,12.05
2023-04-15T08:51:26.918Z,12.24
2023-04-15T08:53:54.305Z,12.17
2023-04-15T08:56:25.507Z,12.17
2023-04-15T08:58:52.132Z,12.44
2023-04-15T09:01:19.041Z,12.16
2023-04-15T09:03:48.012Z,12.15
2023-04-15T09:06:17.149Z,11.84
2023-04-15T09:08:43.989Z,11.58
2023-04-15T09:11:10.517Z,11.39
2023-04-15T09:13:37.046Z,11.42
2023-04-15T09:16:05.817Z,11.62
2023-04-15T09:18:34.699Z,11.49
2023-04-15T09:21:05.958Z,11.35
2023-04-15T09:23:32.805Z,11.27
2023-04-15T09:25:59.334Z,11.18
2023-04-15T09:28:26.501Z,11.07
2023-04-15T09:30:56.725Z,11.13
2023-04-15T09:33:23.596Z,11.25
2023-04-15T09:36:05.151Z,11.14
2023-04-15T09:38:32.532Z,10.92
2023-04-15T09:40:59.427Z,10.57
2023-04-15T09:43:52.453Z,11.18
2023-04-15T09:46:19.154Z,11.45
2023-04-15T09:48:46.044Z,11.37
2023-04-15T09:51:12.630Z,11.60
2023-04-15T09:53:39.109Z,11.81
2023-04-15T09:56:05.816Z,11.75
2023-04-15T09:58:34.196Z,11.68
2023-04-15T10:01:03.495Z,11.68
2023-04-15T10:03:35.788Z,11.94
2023-04-15T10:06:02.738Z,11.63
2023-04-15T10:08:31.498Z,11.85
2023-04-15T10:10:59.011Z,11.93
2023-04-15T10:13:29.556Z,12.05
2023-04-15T10:15:59.328Z,12.15
2023-04-15T10:18:28.149Z,12.16
2023-04-15T10:20:55.532Z,12.20
2023-04-15T10:23:23.579Z,12.18
2023-04-15T10:25:52.674Z,12.19
2023-04-15T10:28:20.032Z,12.11
2023-04-15T10:30:46.874Z,12.12
2023-04-15T10:33:15.354Z,12.26
2023-04-15T10:35:42.935Z,12.30
2023-04-15T10:38:31.787Z,12.25
2023-04-15T10:41:17.768Z,12.17
2023-04-15T10:43:51.791Z,12.17
2023-04-15T10:46:39.232Z,12.08
2023-04-15T10:49:14.731Z,12.12
2023-04-15T10:51:52.761Z,12.25
2023-04-15T10:54:25.016Z,12.01
2023-04-15T10:57:07.184Z,11.97
2023-04-15T10:59:37.680Z,11.91
2023-04-15T11:02:07.127Z,12.09
2023-04-15T11:04:56.538Z,12.03
2023-04-15T11:07:50.463Z,11.86
2023-04-15T11:10:25.903Z,11.71
2023-04-15T11:12:56.675Z,11.55
2023-04-15T11:15:41.009Z,11.70
2023-04-15T11:18:12.357Z,11.67
2023-04-15T11:20:41.821Z,11.62
2023-04-15T11:23:14.745Z,11.64
2023-04-15T11:25:42.756Z,11.98
2023-04-15T11:28:09.902Z,11.98
2023-04-15T11:30:37.802Z,11.84
2023-04-15T11:33:07.217Z,12.10
2023-04-15T11:35:34.697Z,12.18
2023-04-15T11:38:05.885Z,12.27
2023-04-15T11:40:38.495Z,12.26
2023-04-15T11:43:17.174Z,11.85
2023-04-15T11:45:52.924Z,12.03
2023-04-15T11:48:22.686Z,12.18
2023-04-15T11:51:03.476Z,12.17
2023-04-15T11:53:47.510Z,12.39
2023-04-15T11:56:22.116Z,12.61
2023-04-15T11:58:55.834Z,12.63
2023-04-15T12:01:34.617Z,12.44
2023-04-15T12:04:01.256Z,12.61
2023-04-15T12:06:32.845Z,12.27
2023-04-15T12:09:12.105Z,12.65
2023-04-15T12:11:44.827Z,12.63
2023-04-15T12:14:15.823Z,12.45
2023-04-15T12:16:49.285Z,12.50
2023-04-15T12:19:22.334Z,12.30
2023-04-15T12:21:49.294Z,12.13
2023-04-15T12:24:19.653Z,12.52
2023-04-15T12:26:49.199Z,12.56
2023-04-15T12:29:17.073Z,12.52
2023-04-15T12:31:52.391Z,12.91
2023-04-15T12:34:39.084Z,12.83
2023-04-15T12:37:10.946Z,13.03
2023-04-15T12:39:40.376Z,12.85
2023-04-15T12:42:07.900Z,12.78
2023-04-15T12:44:35.235Z,12.93
2023-04-15T12:47:02.051Z,13.13
2023-04-15T12:49:29.394Z,13.10
2023-04-15T12:51:57.431Z,12.88
2023-04-15T12:54:23.949Z,12.87
2023-04-15T12:56:51.246Z,13.10
2023-04-15T12:59:18.070Z,12.94
2023-04-15T13:01:46.129Z,12.79
2023-04-15T13:04:12.810Z,13.26
2023-04-15T13:06:39.588Z,13.27
2023-04-15T13:09:06.279Z,13.09
2023-04-15T13:11:33.618Z,13.30
2023-04-15T13:14:02.290Z,13.01
2023-04-15T13:16:29.481Z,12.95
2023-04-15T13:18:56.046Z,13.34
2023-04-15T13:21:22.498Z,13.04
2023-04-15T13:23:50.254Z,13.36
2023-04-15T13:26:17.956Z,13.65
2023-04-15T13:28:45.571Z,13.55
2023-04-15T13:31:14.083Z,13.38
2023-04-15T13:33:41.150Z,13.31
2023-04-15T13:36:08.173Z,13.35
2023-04-15T13:38:34.797Z,13.51
2023-04-15T13:41:03.653Z,13.39
2023-04-15T13:43:30.303Z,13.48
2023-04-15T13:45:57.025Z,13.66
2023-04-15T13:48:23.734Z,13.76
2023-04-15T13:50:50.306Z,13.91
2023-04-15T13:53:16.900Z,13.60
2023-04-15T13:55:43.729Z,13.37
2023-04-15T13:58:13.155Z,13.65
2023-04-15T14:00:39.940Z,13.53
2023-04-15T14:03:06.758Z,13.52
2023-04-15T14:05:33.359Z,13.68
2023-04-15T14:08:00.584Z,13.46
2023-04-15T14:10:27.119Z,13.48
2023-04-15T14:12:53.686Z,13.52
2023-04-15T14:15:21.195Z,13.54
2023-04-15T14:17:47.761Z,13.55
2023-04-15T14:20:16.807Z,13.72
2023-04-15T14:22:43.856Z,13.73
2023-04-15T14:25:15.054Z,13.80
2023-04-15T14:27:46.623Z,13.76
2023-04-15T14:30:13.393Z,13.84
2023-04-15T14:32:40.208Z,13.97
2023-04-15T14:35:07.300Z,14.01
2023-04-15T14:37:33.861Z,13.83
2023-04-15T14:40:00.372Z,13.99
2023-04-15T14:42:26.996Z,13.98
2023-04-15T14:44:53.488Z,13.99
2023-04-15T14:47:20.027Z,14.00
2023-04-15T14:49:46.689Z,14.05
2023-04-15T14:52:13.145Z,14.01
2023-04-15T14:54:39.597Z,14.02
2023-04-15T14:57:06.106Z,14.11
2023-04-15T14:59:32.904Z,14.09
2023-04-15T15:02:00.209Z,14.00
2023-04-15T15:04:27.488Z,14.12
2023-04-15T15:06:54.850Z,14.15
2023-04-15T15:09:21.434Z,14.13
2023-04-15T15:11:48.168Z,14.09
2023-04-15T15:14:14.771Z,14.04
2023-04-15T15:16:41.343Z,13.78
2023-04-15T15:19:07.872Z,13.91
2023-04-15T15:21:34.949Z,13.98
2023-04-15T15:24:01.550Z,13.86
2023-04-15T15:26:28.065Z,13.89
2023-04-15T15:28:54.750Z,13.86
2023-04-15T15:31:21.334Z,13.90
2023-04-15T15:33:47.969Z,13.87
2023-04-15T15:36:14.478Z,13.89
2023-04-15T15:38:40.930Z,13.92
2023-04-15T15:41:07.402Z,13.91
2023-04-15T15:43:33.860Z,13.94
2023-04-15T15:46:01.041Z,13.91
2023-04-15T15:48:27.633Z,13.80
2023-04-15T15:50:54.212Z,13.79
2023-04-15T15:53:20.697Z,13.83
2023-04-15T15:55:47.804Z,13.84
2023-04-15T15:58:14.353Z,13.79
2023-04-15T16:00:41.631Z,13.77
2023-04-15T16:03:08.529Z,13.64
2023-04-15T16:05:36.068Z,13.53
2023-04-15T16:08:02.607Z,13.61
2023-04-15T16:10:29.153Z,13.58
2023-04-15T16:12:56.173Z,13.58
2023-04-15T16:15:25.093Z,13.67
2023-04-15T16:17:51.867Z,13.64
2023-04-15T16:20:18.478Z,13.63
2023-04-15T16:22:45.245Z,13.61
2023-04-15T16:25:11.776Z,13.60
2023-04-15T16:30:09.156Z,13.57
2023-04-15T16:32:35.866Z,13.56
2023-04-15T16:35:03.436Z,13.13
2023-04-15T16:37:29.923Z,12.51
2023-04-15T16:39:56.471Z,12.66
2023-04-15T16:42:22.985Z,12.93
2023-04-15T16:44:49.450Z,13.00
2023-04-15T16:47:15.980Z,13.04
2023-04-15T16:49:42.504Z,13.11
2023-04-15T16:52:08.953Z,13.19
2023-04-15T16:54:35.427Z,13.22
2023-04-15T16:57:01.943Z,13.24
2023-04-15T16:59:28.535Z,13.28
2023-04-15T17:01:55.193Z,13.32
2023-04-15T17:04:21.873Z,13.35
2023-04-15T17:06:48.418Z,13.35
2023-04-15T17:09:14.917Z,13.35
2023-04-15T17:11:41.492Z,13.30
2023-04-15T17:14:08.269Z,13.31
2023-04-15T17:16:34.795Z,13.32
2023-04-15T17:19:01.333Z,13.30
2023-04-15T17:21:27.929Z,13.35
2023-04-15T17:23:54.634Z,13.40
2023-04-15T17:26:21.113Z,13.39
2023-04-15T17:28:47.655Z,13.36
2023-04-15T17:31:14.277Z,13.25
2023-04-15T17:34:01.510Z,13.31
2023-04-15T17:36:30.190Z,13.35
2023-04-15T17:38:56.758Z,13.28
2023-04-15T17:41:23.840Z,13.40
2023-04-15T17:43:50.477Z,13.40
2023-04-15T17:46:17.078Z,13.38
2023-04-15T17:48:43.971Z,13.41
2023-04-15T17:51:10.484Z,13.36
2023-04-15T17:53:36.993Z,13.38
2023-04-15T17:56:03.737Z,13.34
2023-04-15T17:58:31.295Z,13.37
2023-04-15T18:00:57.826Z,13.33
2023-04-15T18:03:24.565Z,13.33
2023-04-15T18:05:51.245Z,13.36
2023-04-15T18:08:17.900Z,13.30
2023-04-15T18:10:44.429Z,13.33
2023-04-15T18:13:10.921Z,13.17
2023-04-15T18:15:37.434Z,13.19
2023-04-15T18:18:04.002Z,13.13
2023-04-15T18:20:30.517Z,13.18
2023-04-15T18:22:56.982Z,13.14
2023-04-15T18:25:23.459Z,13.09
2023-04-15T18:27:49.976Z,13.03
2023-04-15T18:30:16.447Z,13.05
2023-04-15T18:32:43.442Z,13.07
2023-04-15T18:35:10.216Z,13.08
2023-04-15T18:37:36.784Z,13.08
2023-04-15T18:40:03.473Z,13.08
2023-04-15T18:42:29.960Z,13.09
2023-04-15T18:44:56.491Z,13.11
2023-04-15T18:47:25.206Z,13.08
2023-04-15T18:49:53.174Z,13.06
2023-04-15T18:52:19.787Z,13.07
2023-04-15T18:54:46.418Z,13.05
2023-04-15T18:57:12.888Z,13.05
2023-04-15T18:59:39.389Z,12.97
2023-04-15T19:02:06.326Z,13.02
2023-04-15T19:04:33.196Z,12.98
2023-04-15T19:06:59.880Z,12.95
2023-04-15T19:09:26.492Z,12.93
2023-04-15T19:11:53.100Z,12.91
2023-04-15T19:14:19.689Z,12.93
2023-04-15T19:16:46.250Z,12.96
2023-04-15T19:19:12.836Z,12.96
2023-04-15T19:21:39.337Z,12.93
2023-04-15T19:24:06.108Z,12.94
2023-04-15T19:26:32.938Z,12.96
2023-04-15T19:28:59.416Z,12.98
2023-04-15T19:31:26.344Z,12.98
2023-04-15T19:33:52.900Z,12.92
2023-04-15T19:36:19.443Z,12.85
2023-04-15T19:38:46.164Z,12.69
2023-04-15T19:41:12.634Z,12.63
2023-04-15T19:43:39.091Z,12.56
2023-04-15T19:46:07.482Z,12.58
2023-04-15T19:48:34.007Z,12.53
2023-04-15T19:51:00.706Z,12.49
2023-04-15T19:53:27.161Z,12.40
2023-04-15T19:55:53.964Z,12.36
2023-04-15T19:58:20.500Z,12.45
2023-04-15T20:00:46.976Z,12.51
2023-04-15T20:03:13.913Z,12.54
2023-04-15T20:05:40.571Z,12.57
2023-04-15T20:08:07.134Z,12.59
2023-04-15T20:10:33.883Z,12.48
2023-04-15T20:13:00.467Z,12.48
2023-04-15T20:15:27.025Z,12.47
2023-04-15T20:17:55.704Z,12.39
2023-04-15T20:20:22.599Z,12.44
2023-04-15T20:22:49.171Z,12.42
2023-04-15T20:25:15.714Z,12.36
2023-04-15T20:27:42.322Z,12.37
2023-04-15T20:30:09.562Z,12.31
2023-04-15T20:32:36.442Z,12.28
2023-04-15T20:35:04.307Z,12.21
2023-04-15T20:37:31.955Z,12.20
2023-04-15T20:40:01.304Z,12.08
2023-04-15T20:42:28.268Z,11.97
2023-04-15T20:44:54.789Z,11.92
2023-04-15T20:47:21.316Z,11.92
2023-04-15T20:49:47.896Z,11.97
2023-04-15T20:52:14.444Z,11.98
2023-04-15T20:54:40.906Z,11.96
2023-04-15T20:57:07.408Z,11.97
2023-04-15T20:59:33.880Z,11.96
2023-04-15T21:02:00.685Z,11.86
2023-04-15T21:04:27.232Z,11.86
2023-04-15T21:06:53.736Z,11.85
2023-04-15T21:09:20.202Z,11.83
2023-04-15T21:12:00.531Z,11.86
2023-04-15T21:14:28.840Z,11.87
2023-04-15T21:16:57.112Z,11.88
2023-04-15T21:19:23.622Z,11.93
2023-04-15T21:21:50.124Z,11.89
2023-04-15T21:24:16.615Z,11.82
2023-04-15T21:26:43.087Z,11.83
2023-04-15T21:29:11.736Z,11.87
2023-04-15T21:31:38.657Z,11.63
2023-04-15T21:34:05.253Z,11.20
2023-04-15T21:36:32.437Z,11.11
2023-04-15T21:38:59.093Z,10.98
2023-04-15T21:41:25.852Z,11.03
2023-04-15T21:43:53.102Z,11.04
2023-04-15T21:46:22.778Z,11.04
2023-04-15T21:48:52.808Z,11.28
2023-04-15T21:51:19.268Z,11.44
2023-04-15T21:53:45.747Z,11.59
2023-04-15T21:56:12.372Z,11.70
2023-04-15T21:58:38.916Z,11.82
2023-04-15T22:01:05.557Z,11.91
2023-04-15T22:03:34.533Z,11.92
2023-04-15T22:06:04.350Z,12.05
2023-04-15T22:08:41.762Z,12.05
2023-04-15T22:11:20.935Z,12.10
2023-04-15T22:13:47.406Z,12.06
2023-04-15T22:16:13.892Z,12.08
2023-04-15T22:18:40.341Z,12.11
2023-04-15T22:21:06.829Z,12.20
2023-04-15T22:23:33.347Z,12.24
2023-04-15T22:25:59.840Z,12.25
2023-04-15T22:28:26.303Z,12.27
2023-04-15T22:30:52.772Z,12.29
2023-04-15T22:33:19.302Z,12.30
2023-04-15T22:35:45.757Z,12.26
2023-04-15T22:38:12.203Z,12.30
2023-04-15T22:40:38.712Z,12.32
2023-04-15T22:43:05.206Z,12.32
2023-04-15T22:45:31.677Z,12.32
2023-04-15T22:47:58.256Z,12.30
2023-04-15T22:50:24.761Z,12.29
2023-04-15T22:52:51.245Z,12.31
2023-04-15T22:55:17.725Z,12.15
2023-04-15T22:57:44.165Z,12.12
2023-04-15T23:00:10.919Z,12.17
2023-04-15T23:02:37.557Z,12.19
2023-04-15T23:05:12.420Z,12.16
2023-04-15T23:07:40.051Z,12.14
2023-04-15T23:10:07.201Z,12.06
2023-04-15T23:12:33.793Z,12.08
2023-04-15T23:15:00.292Z,12.08
2023-04-15T23:17:26.843Z,12.01
2023-04-15T23:19:53.349Z,11.97
2023-04-15T23:22:19.853Z,11.92
2023-04-15T23:24:46.380Z,11.92
2023-04-15T23:27:12.897Z,11.86
2023-04-15T23:29:39.420Z,11.82
2023-04-15T23:32:06.405Z,11.78
2023-04-15T23:34:32.882Z,11.68
2023-04-15T23:36:59.377Z,11.64
2023-04-15T23:39:25.900Z,11.65
2023-04-15T23:41:53.038Z,11.62
2023-04-15T23:44:20.241Z,11.58
2023-04-15T23:46:47.023Z,11.56
2023-04-15T23:49:13.584Z,11.53
2023-04-15T23:51:40.861Z,11.40
2023-04-15T23:54:07.387Z,11.18
2023-04-15T23:56:33.875Z,11.20
2023-04-15T23:59:00.334Z,11.19
